createdAt,value
2022-10-03T00:02:12.452Z,12.13
2022-10-03T00:04:39.566Z,11.55
2022-10-03T00:07:45.538Z,10.70
2022-10-03T00:10:22.758Z,10.32
2022-10-03T00:12:53.438Z,11.43
2022-10-03T00:15:32.813Z,11.52
2022-10-03T00:18:31.781Z,10.38
2022-10-03T00:21:31.095Z,11.50
2022-10-03T00:24:26.292Z,11.60
2022-10-03T00:27:03.378Z,10.90
2022-10-03T00:32:30.484Z,11.02
2022-10-03T00:35:02.824Z,11.07
2022-10-03T00:37:30.196Z,10.88
2022-10-03T00:40:35.185Z,11.27
2022-10-03T00:43:05.550Z,11.75
2022-10-03T00:46:01.475Z,11.63
2022-10-03T00:48:48.336Z,13.18
2022-10-03T00:51:45.024Z,10.98
2022-10-03T00:54:32.169Z,12.30
2022-10-03T00:57:36.253Z,12.40
2022-10-03T01:00:16.316Z,11.73
2022-10-03T01:02:47.443Z,12.85
2022-10-03T01:05:29.690Z,11.63
2022-10-03T01:08:17.629Z,13.23
2022-10-03T01:11:00.485Z,11.85
2022-10-03T01:13:46.355Z,12.65
2022-10-03T01:16:38.014Z,12.40
2022-10-03T01:19:49.474Z,12.57
2022-10-03T01:22:41.150Z,11.40
2022-10-03T01:25:10.819Z,12.07
2022-10-03T01:28:17.642Z,12.45
2022-10-03T01:30:51.947Z,12.27
2022-10-03T01:33:27.989Z,11.32
2022-10-03T01:36:03.335Z,12.25
2022-10-03T01:39:17.685Z,11.02
2022-10-03T01:41:59.250Z,11.20
2022-10-03T01:44:44.515Z,10.77
2022-10-03T01:47:29.898Z,10.90
2022-10-03T01:50:05.182Z,11.18
2022-10-03T01:52:49.874Z,11.23
2022-10-03T01:55:44.903Z,11.15
2022-10-03T01:58:18.094Z,10.43
2022-10-03T02:00:58.750Z,9.98
2022-10-03T02:03:36.425Z,10.75
2022-10-03T02:06:11.375Z,10.32
2022-10-03T02:08:41.016Z,9.70
2022-10-03T02:11:11.239Z,9.52
2022-10-03T02:13:44.452Z,9.48
2022-10-03T02:16:29.577Z,9.57
2022-10-03T02:19:11.448Z,9.05
2022-10-03T02:21:55.399Z,9.57
2022-10-03T02:24:45.517Z,8.43
2022-10-03T02:27:24.719Z,9.27
2022-10-03T02:30:16.482Z,8.90
2022-10-03T02:32:46.173Z,9.45
2022-10-03T02:35:31.768Z,8.70
2022-10-03T02:38:36.279Z,9.20
2022-10-03T02:41:23.205Z,9.35
2022-10-03T02:44:01.429Z,9.30
2022-10-03T02:46:47.320Z,9.25
2022-10-03T02:49:51.804Z,9.93
2022-10-03T02:52:42.668Z,9.00
2022-10-03T02:55:50.006Z,9.38
2022-10-03T02:58:29.167Z,8.20
2022-10-03T03:01:17.790Z,8.32
2022-10-03T03:03:53.769Z,9.18
2022-10-03T03:06:35.907Z,8.10
2022-10-03T03:09:27.239Z,8.55
2022-10-03T03:12:02.098Z,8.40
2022-10-03T03:14:29.430Z,8.23
2022-10-03T03:17:15.240Z,7.97
2022-10-03T03:20:16.526Z,8.88
2022-10-03T03:23:03.044Z,8.45
2022-10-03T03:25:42.309Z,7.80
2022-10-03T03:28:21.270Z,8.23
2022-10-03T03:30:52.553Z,8.30
2022-10-03T03:33:31.960Z,8.07
2022-10-03T03:36:05.943Z,8.38
2022-10-03T03:38:46.559Z,8.52
2022-10-03T03:41:31.672Z,8.48
2022-10-03T03:44:36.157Z,8.60
2022-10-03T03:47:09.081Z,8.50
2022-10-03T03:50:06.650Z,8.80
2022-10-03T03:53:07.688Z,10.00
2022-10-03T03:55:50.919Z,9.90
2022-10-03T03:58:26.906Z,10.52
2022-10-03T04:00:56.937Z,12.48
2022-10-03T04:03:54.111Z,12.02
2022-10-03T04:06:34.792Z,12.25
2022-10-03T04:09:07.855Z,13.07
2022-10-03T04:11:49.941Z,13.82
2022-10-03T04:14:22.904Z,13.65
2022-10-03T04:17:19.310Z,12.48
2022-10-03T04:20:11.309Z,13.25
2022-10-03T04:23:01.756Z,12.60
2022-10-03T04:26:00.790Z,13.68
2022-10-03T04:28:45.417Z,13.63
2022-10-03T04:31:20.735Z,14.52
2022-10-03T04:34:28.382Z,15.13
2022-10-03T04:37:18.824Z,14.85
2022-10-03T04:39:55.100Z,13.52
2022-10-03T04:42:42.395Z,12.60
2022-10-03T04:45:53.941Z,13.38
2022-10-03T04:48:45.803Z,12.85
2022-10-03T04:51:16.181Z,12.35
2022-10-03T04:53:57.718Z,12.93
2022-10-03T04:56:53.474Z,12.80
2022-10-03T04:59:38.310Z,12.40
2022-10-03T05:02:08.312Z,13.25
2022-10-03T05:05:03.220Z,13.93
2022-10-03T05:07:41.659Z,13.55
2022-10-03T05:10:44.830Z,12.63
2022-10-03T05:13:20.032Z,12.93
2022-10-03T05:16:14.898Z,11.77
2022-10-03T05:18:50.535Z,12.38
2022-10-03T05:21:20.600Z,12.15
2022-10-03T05:24:19.287Z,12.90
2022-10-03T05:27:39.639Z,11.75
2022-10-03T05:30:15.853Z,11.57
2022-10-03T05:33:12.950Z,13.63
2022-10-03T05:35:51.260Z,11.80
2022-10-03T05:38:34.416Z,11.20
2022-10-03T05:41:11.720Z,11.38
2022-10-03T05:44:02.150Z,10.52
2022-10-03T05:46:52.480Z,10.48
2022-10-03T05:49:40.688Z,10.20
2022-10-03T05:52:37.393Z,10.15
2022-10-03T05:55:13.210Z,11.00
2022-10-03T05:58:12.984Z,10.25
2022-10-03T06:00:50.307Z,9.63
2022-10-03T06:03:52.517Z,10.40
2022-10-03T06:06:41.199Z,10.27
2022-10-03T06:09:22.782Z,8.82
2022-10-03T06:12:28.302Z,9.95
2022-10-03T06:15:13.125Z,9.00
2022-10-03T06:18:01.684Z,9.10
2022-10-03T06:20:41.036Z,9.00
2022-10-03T06:23:52.550Z,9.60
2022-10-03T06:26:45.389Z,9.30
2022-10-03T06:29:27.449Z,9.18
2022-10-03T06:32:26.494Z,9.65
2022-10-03T06:35:15.890Z,8.18
2022-10-03T06:38:00.860Z,9.13
2022-10-03T06:41:06.061Z,9.15
2022-10-03T06:43:51.403Z,14.90
2022-10-03T06:46:45.871Z,8.50
2022-10-03T06:49:27.595Z,8.73
2022-10-03T06:52:03.137Z,7.57
2022-10-03T06:55:14.018Z,7.68
2022-10-03T06:57:46.992Z,7.85
2022-10-03T07:00:17.056Z,7.88
2022-10-03T07:03:06.346Z,6.70
2022-10-03T07:05:51.751Z,7.60
2022-10-03T07:08:59.927Z,6.93
2022-10-03T07:11:44.736Z,6.68
2022-10-03T07:14:35.482Z,6.82
2022-10-03T07:17:03.284Z,7.45
2022-10-03T07:19:30.336Z,7.10
2022-10-03T07:22:16.595Z,8.15
2022-10-03T07:25:09.580Z,7.75
2022-10-03T07:27:59.148Z,7.03
2022-10-03T07:30:46.771Z,7.05
2022-10-03T07:33:39.154Z,8.05
2022-10-03T07:36:49.908Z,6.97
2022-10-03T07:39:54.086Z,6.78
2022-10-03T07:42:33.859Z,7.40
2022-10-03T07:45:30.445Z,7.22
2022-10-03T07:48:09.369Z,7.18
2022-10-03T07:50:36.355Z,6.75
2022-10-03T07:53:29.332Z,6.25
2022-10-03T07:56:21.291Z,6.53
2022-10-03T07:59:17.370Z,6.22
2022-10-03T08:01:47.470Z,5.57
2022-10-03T08:04:28.248Z,5.68
2022-10-03T08:07:04.572Z,5.72
2022-10-03T08:09:46.601Z,6.85
2022-10-03T08:12:32.659Z,5.45
2022-10-03T08:15:10.921Z,5.63
2022-10-03T08:18:01.812Z,6.20
2022-10-03T08:20:39.127Z,6.35
2022-10-03T08:23:30.433Z,5.45
2022-10-03T08:26:20.507Z,5.90
2022-10-03T08:29:35.096Z,5.93
2022-10-03T08:32:39.478Z,5.97
2022-10-03T08:35:25.029Z,4.40
2022-10-03T08:38:12.954Z,5.43
2022-10-03T08:41:19.025Z,4.82
2022-10-03T08:44:07.342Z,5.65
2022-10-03T08:47:11.740Z,4.95
2022-10-03T08:49:51.895Z,4.55
2022-10-03T08:52:40.010Z,4.47
2022-10-03T08:55:31.180Z,4.68
2022-10-03T08:58:19.808Z,4.63
2022-10-03T09:01:00.366Z,4.75
2022-10-03T09:03:49.192Z,4.53
2022-10-03T09:07:05.145Z,4.68
2022-10-03T09:09:39.906Z,4.57
2022-10-03T09:12:42.775Z,4.78
2022-10-03T09:15:25.245Z,4.40
2022-10-03T09:18:05.508Z,4.90
2022-10-03T09:21:20.798Z,4.53
2022-10-03T09:24:15.717Z,5.18
2022-10-03T09:27:33.573Z,4.72
2022-10-03T09:30:29.314Z,4.45
2022-10-03T09:32:56.374Z,4.43
2022-10-03T09:35:50.473Z,4.70
2022-10-03T09:38:38.859Z,4.30
2022-10-03T09:41:31.485Z,4.78
2022-10-03T09:44:20.142Z,4.72
2022-10-03T09:47:23.954Z,4.70
2022-10-03T09:50:21.554Z,4.03
2022-10-03T09:53:32.938Z,3.83
2022-10-03T09:56:27.941Z,3.70
2022-10-03T09:59:13.472Z,3.55
2022-10-03T10:01:46.533Z,3.70
2022-10-03T10:04:57.855Z,3.92
2022-10-03T10:08:20.977Z,3.78
2022-10-03T10:11:25.359Z,3.88
2022-10-03T10:14:11.006Z,3.05
2022-10-03T10:16:45.737Z,2.50
2022-10-03T10:19:32.882Z,2.20
2022-10-03T10:22:11.881Z,2.35
2022-10-03T10:25:06.915Z,1.90
2022-10-03T10:27:33.904Z,2.10
2022-10-03T10:30:15.587Z,1.73
2022-10-03T10:33:39.786Z,1.92
2022-10-03T10:36:28.369Z,1.88
2022-10-03T10:39:18.351Z,1.85
2022-10-03T10:42:39.291Z,1.90
2022-10-03T10:45:39.293Z,2.10
2022-10-03T10:48:39.687Z,2.03
2022-10-03T10:51:16.214Z,1.90
2022-10-03T10:54:20.247Z,1.85
2022-10-03T10:57:29.820Z,1.80
2022-10-03T11:00:19.360Z,1.70
2022-10-03T11:03:10.698Z,1.70
2022-10-03T11:06:00.791Z,2.10
2022-10-03T11:08:52.619Z,2.10
2022-10-03T11:11:44.475Z,1.92
2022-10-03T11:14:14.375Z,2.40
2022-10-03T11:17:18.780Z,2.13
2022-10-03T11:20:23.508Z,2.00
2022-10-03T11:23:09.613Z,2.10
2022-10-03T11:26:01.259Z,2.38
2022-10-03T11:28:46.968Z,2.17
2022-10-03T11:31:20.141Z,2.17
2022-10-03T11:34:09.115Z,2.50
2022-10-03T11:37:06.100Z,2.05
2022-10-03T11:39:54.137Z,2.40
2022-10-03T11:42:40.825Z,2.08
2022-10-03T11:45:24.762Z,2.07
2022-10-03T11:48:23.766Z,2.15
2022-10-03T11:50:54.035Z,2.20
2022-10-03T11:53:36.344Z,2.28
2022-10-03T11:56:06.701Z,1.98
2022-10-03T11:59:02.366Z,2.10
2022-10-03T12:01:48.646Z,1.90
2022-10-03T12:04:46.533Z,1.90
2022-10-03T12:07:53.065Z,1.52
2022-10-03T12:10:43.447Z,1.35
2022-10-03T12:13:17.696Z,1.30
2022-10-03T12:15:51.855Z,1.50
2022-10-03T12:18:30.549Z,1.50
2022-10-03T12:21:23.122Z,1.30
2022-10-03T12:24:25.540Z,1.40
2022-10-03T12:27:13.907Z,1.50
2022-10-03T12:29:46.122Z,1.70
2022-10-03T12:32:45.549Z,1.25
2022-10-03T12:35:35.073Z,1.48
2022-10-03T12:38:20.974Z,1.20
2022-10-03T12:41:20.368Z,1.35
2022-10-03T12:44:16.891Z,1.23
2022-10-03T12:46:57.806Z,1.20
2022-10-03T12:49:40.136Z,1.27
2022-10-03T12:52:20.738Z,1.30
2022-10-03T12:55:00.239Z,1.23
2022-10-03T12:58:14.974Z,1.10
2022-10-03T13:00:56.578Z,1.00
2022-10-03T13:04:05.846Z,0.80
2022-10-03T13:07:03.196Z,1.20
2022-10-03T13:09:49.965Z,1.00
2022-10-03T13:12:39.419Z,1.00
2022-10-03T13:15:47.567Z,1.08
2022-10-03T13:18:45.595Z,1.00
2022-10-03T13:25:02.910Z,1.10
2022-10-03T13:27:43.776Z,1.10
2022-10-03T13:30:17.560Z,1.05
2022-10-03T13:32:51.362Z,1.10
2022-10-03T13:35:48.755Z,0.90
2022-10-03T13:39:08.475Z,0.95
2022-10-03T13:42:08.679Z,1.00
2022-10-03T13:44:44.032Z,1.15
2022-10-03T13:47:24.550Z,1.10
2022-10-03T13:50:05.636Z,0.90
2022-10-03T13:52:55.460Z,1.05
2022-10-03T13:55:35.332Z,0.82
2022-10-03T13:58:12.007Z,0.70
2022-10-03T14:00:51.650Z,0.90
2022-10-03T14:03:31.840Z,0.82
2022-10-03T14:06:36.694Z,1.10
2022-10-03T14:09:17.312Z,0.90
2022-10-03T14:11:50.738Z,1.10
2022-10-03T14:18:06.411Z,0.90
2022-10-03T14:20:43.242Z,1.00
2022-10-03T14:26:14.956Z,1.00
2022-10-03T14:28:42.039Z,1.00
2022-10-03T14:31:18.884Z,1.23
2022-10-03T14:33:52.411Z,1.27
2022-10-03T14:36:32.090Z,1.02
2022-10-03T14:39:29.156Z,1.10
2022-10-03T14:41:56.261Z,1.30
2022-10-03T14:44:37.800Z,1.30
2022-10-03T14:47:17.255Z,1.50
2022-10-03T14:50:00.047Z,1.20
2022-10-03T14:52:39.273Z,1.38
2022-10-03T14:55:18.641Z,1.23
2022-10-03T14:58:09.885Z,1.40
2022-10-03T15:00:43.839Z,1.10
2022-10-03T15:03:17.196Z,1.30
2022-10-03T15:06:19.297Z,1.40
2022-10-03T15:08:52.374Z,1.23
2022-10-03T15:11:27.601Z,1.10
2022-10-03T15:14:02.787Z,1.20
2022-10-03T15:16:34.945Z,1.10
2022-10-03T15:19:11.432Z,5.05
2022-10-03T15:21:44.110Z,1.70
2022-10-03T15:24:24.944Z,1.80
2022-10-03T15:26:59.774Z,1.70
2022-10-03T15:29:28.110Z,1.40
2022-10-03T15:31:58.169Z,1.55
2022-10-03T15:34:31.931Z,1.95
2022-10-03T15:37:11.009Z,1.70
2022-10-03T15:39:42.174Z,1.80
2022-10-03T15:42:09.269Z,1.67
2022-10-03T15:44:55.920Z,1.70
2022-10-03T15:47:32.386Z,1.70
2022-10-03T15:50:34.815Z,1.60
2022-10-03T15:53:35.712Z,1.50
2022-10-03T15:56:15.522Z,1.50
2022-10-03T15:58:50.470Z,1.60
2022-10-03T16:01:27.935Z,1.80
2022-10-03T16:04:02.567Z,1.88
2022-10-03T16:06:40.380Z,1.65
2022-10-03T16:09:22.730Z,1.52
2022-10-03T16:12:16.852Z,1.50
2022-10-03T16:14:57.812Z,1.60
2022-10-03T16:17:42.016Z,1.45
2022-10-03T16:20:17.753Z,1.50
2022-10-03T16:23:19.502Z,3.10
2022-10-03T16:25:58.828Z,1.85
2022-10-03T16:28:34.834Z,1.85
2022-10-03T16:31:35.183Z,1.60
2022-10-03T16:34:15.831Z,1.60
2022-10-03T16:36:48.402Z,1.70
2022-10-03T16:39:26.126Z,1.70
2022-10-03T16:41:55.538Z,1.63
2022-10-03T16:44:25.388Z,1.90
2022-10-03T16:46:57.742Z,2.70
2022-10-03T16:50:04.780Z,1.40
2022-10-03T16:52:44.135Z,1.90
2022-10-03T16:55:22.938Z,1.65
2022-10-03T16:57:52.784Z,1.50
2022-10-03T17:00:41.943Z,1.23
2022-10-03T17:03:19.782Z,1.60
2022-10-03T17:05:48.981Z,1.55
2022-10-03T17:08:40.743Z,1.30
2022-10-03T17:11:16.179Z,1.30
2022-10-03T17:13:47.392Z,1.40
2022-10-03T17:16:50.056Z,1.30
2022-10-03T17:19:41.100Z,1.30
2022-10-03T17:22:17.231Z,1.20
2022-10-03T17:25:08.629Z,1.60
2022-10-03T17:27:41.939Z,1.10
2022-10-03T17:30:35.732Z,1.30
2022-10-03T17:33:11.991Z,1.35
2022-10-03T17:35:55.088Z,1.42
2022-10-03T17:38:49.929Z,1.33
2022-10-03T17:41:43.735Z,1.30
2022-10-03T17:44:36.754Z,1.25
2022-10-03T17:47:23.041Z,1.90
2022-10-03T17:50:22.495Z,1.33
2022-10-03T17:52:53.141Z,1.60
2022-10-03T17:55:42.252Z,1.60
2022-10-03T17:58:17.230Z,1.60
2022-10-03T18:00:44.738Z,1.80
2022-10-03T18:03:33.358Z,2.00
2022-10-03T18:06:23.413Z,1.83
2022-10-03T18:08:52.523Z,1.80
2022-10-03T18:11:25.135Z,1.92
2022-10-03T18:14:01.907Z,1.73
2022-10-03T18:16:32.509Z,1.83
2022-10-03T18:19:10.659Z,1.90
2022-10-03T18:22:12.715Z,1.83
2022-10-03T18:24:52.228Z,1.88
2022-10-03T18:27:38.183Z,2.25
2022-10-03T18:30:32.714Z,1.80
2022-10-03T18:33:01.939Z,2.83
2022-10-03T18:35:38.122Z,2.00
2022-10-03T18:38:34.368Z,2.10
2022-10-03T18:41:05.186Z,1.80
2022-10-03T18:43:45.372Z,2.10
2022-10-03T18:46:30.409Z,1.80
2022-10-03T18:52:22.608Z,2.40
2022-10-03T18:55:21.544Z,1.73
2022-10-03T18:58:18.002Z,1.48
2022-10-03T19:01:25.433Z,1.60
2022-10-03T19:04:00.354Z,3.10
2022-10-03T19:06:36.127Z,1.60
2022-10-03T19:09:38.609Z,1.70
2022-10-03T19:12:20.666Z,1.58
2022-10-03T19:14:47.868Z,1.50
2022-10-03T19:18:10.004Z,1.70
2022-10-03T19:20:50.746Z,1.42
2022-10-03T19:23:34.270Z,1.40
2022-10-03T19:26:07.785Z,1.80
2022-10-03T19:28:44.629Z,1.70
2022-10-03T19:31:12.039Z,1.60
2022-10-03T19:33:45.361Z,1.70
2022-10-03T19:36:17.583Z,1.52
2022-10-03T19:38:47.832Z,1.70
2022-10-03T19:41:37.295Z,3.38
2022-10-03T19:44:19.813Z,1.70
2022-10-03T19:46:54.111Z,2.05
2022-10-03T19:49:46.685Z,1.95
2022-10-03T19:52:16.842Z,1.80
2022-10-03T19:54:45.378Z,2.03
2022-10-03T19:57:38.679Z,1.85
2022-10-03T20:00:16.059Z,1.83
2022-10-03T20:02:45.789Z,1.60
2022-10-03T20:05:54.860Z,1.50
2022-10-03T20:08:45.776Z,2.25
2022-10-03T20:11:41.522Z,2.67
2022-10-03T20:14:16.415Z,3.08
2022-10-03T20:16:48.202Z,2.10
2022-10-03T20:19:22.504Z,1.60
2022-10-03T20:21:57.026Z,1.77
2022-10-03T20:24:36.988Z,1.90
2022-10-03T20:27:21.087Z,1.83
2022-10-03T20:30:13.984Z,1.80
2022-10-03T20:32:46.055Z,1.60
2022-10-03T20:35:22.711Z,1.67
2022-10-03T20:38:13.555Z,1.80
2022-10-03T20:40:49.293Z,1.58
2022-10-03T20:43:20.024Z,2.78
2022-10-03T20:46:02.689Z,1.90
2022-10-03T20:48:34.948Z,1.58
2022-10-03T20:51:02.084Z,1.63
2022-10-03T20:53:31.706Z,1.80
2022-10-03T20:56:07.244Z,1.58
2022-10-03T20:58:41.493Z,1.90
2022-10-03T21:01:20.031Z,1.90
2022-10-03T21:04:14.797Z,1.80
2022-10-03T21:07:12.326Z,2.08
2022-10-03T21:09:54.079Z,1.90
2022-10-03T21:12:29.253Z,1.70
2022-10-03T21:15:26.793Z,1.90
2022-10-03T21:17:57.345Z,2.00
2022-10-03T21:20:32.166Z,2.38
2022-10-03T21:23:04.402Z,2.42
2022-10-03T21:25:37.823Z,2.50
2022-10-03T21:28:13.180Z,2.22
2022-10-03T21:30:59.230Z,2.30
2022-10-03T21:33:37.164Z,2.30
2022-10-03T21:36:13.127Z,2.20
2022-10-03T21:38:45.862Z,2.38
2022-10-03T21:41:29.659Z,2.30
2022-10-03T21:44:12.699Z,2.28
2022-10-03T21:46:56.813Z,2.47
2022-10-03T21:49:47.882Z,1.95
2022-10-03T21:52:25.396Z,2.10
2022-10-03T21:55:04.289Z,2.53
2022-10-03T21:57:55.514Z,2.22
2022-10-03T22:00:49.551Z,2.40
2022-10-03T22:03:25.851Z,2.33
2022-10-03T22:06:09.349Z,2.35
2022-10-03T22:08:38.454Z,2.30
2022-10-03T22:11:23.662Z,2.42
2022-10-03T22:14:09.402Z,2.40
2022-10-03T22:16:50.706Z,2.47
2022-10-03T22:19:33.037Z,2.60
2022-10-03T22:22:37.587Z,2.22
2022-10-03T22:25:26.908Z,2.22
2022-10-03T22:28:16.956Z,2.50
2022-10-03T22:31:20.405Z,2.45
2022-10-03T22:33:57.745Z,2.35
2022-10-03T22:36:25.346Z,2.58
2022-10-03T22:38:53.294Z,2.13
2022-10-03T22:41:28.256Z,2.35
2022-10-03T22:43:57.869Z,2.40
2022-10-03T22:46:29.588Z,2.20
2022-10-03T22:49:06.285Z,2.28
2022-10-03T22:51:35.858Z,2.40
2022-10-03T22:54:11.493Z,2.50
2022-10-03T22:56:46.803Z,2.55
2022-10-03T22:59:20.396Z,2.55
2022-10-03T23:01:51.846Z,2.72
2022-10-03T23:04:47.951Z,2.55
2022-10-03T23:07:24.544Z,2.33
2022-10-03T23:10:28.222Z,2.28
2022-10-03T23:13:07.411Z,2.58
2022-10-03T23:15:39.723Z,2.60
2022-10-03T23:18:34.685Z,2.40
2022-10-03T23:21:10.188Z,2.50
2022-10-03T23:23:59.443Z,2.70
2022-10-03T23:26:41.486Z,2.35
2022-10-03T23:29:14.569Z,2.63
2022-10-03T23:31:57.809Z,3.03
2022-10-03T23:34:36.874Z,3.28
2022-10-03T23:37:16.027Z,2.65
2022-10-03T23:39:55.174Z,2.53
2022-10-03T23:42:37.855Z,3.40
2022-10-03T23:45:09.820Z,2.78
2022-10-03T23:47:40.702Z,2.75
2022-10-03T23:50:09.364Z,2.78
2022-10-03T23:52:51.832Z,2.88
2022-10-03T23:55:24.572Z,2.75
2022-10-03T23:57:51.970Z,2.92
